createdAt,value
2022-12-15T00:00:17.809Z,95911.41
2022-12-15T00:03:03.153Z,95948.09
2022-12-15T00:05:49.761Z,96014.97
2022-12-15T00:08:35.504Z,96051.69
2022-12-15T00:11:21.211Z,95945.47
2022-12-15T00:14:06.595Z,96100.50
2022-12-15T00:16:51.528Z,96024.31
2022-12-15T00:19:36.775Z,96015.75
2022-12-15T00:22:23.566Z,96061.06
2022-12-15T00:25:08.801Z,96023.34
2022-12-15T00:27:54.193Z,96075.53
2022-12-15T00:30:39.345Z,96144.09
2022-12-15T00:33:29.079Z,96073.72
2022-12-15T00:36:17.220Z,95945.28
2022-12-15T00:38:47.484Z,96099.47
2022-12-15T00:41:17.588Z,96072.09
2022-12-15T00:43:44.343Z,96154.28
2022-12-15T00:46:29.461Z,96030.19
2022-12-15T00:48:56.244Z,96095.25
2022-12-15T00:51:41.517Z,96084.91
2022-12-15T00:54:26.732Z,96157.78
2022-12-15T00:57:11.981Z,96160.34
2022-12-15T00:59:57.360Z,96034.41
2022-12-15T01:02:42.888Z,96138.00
2022-12-15T01:05:28.318Z,96050.44
2022-12-15T01:08:13.704Z,96085.56
2022-12-15T01:10:58.816Z,96153.28
2022-12-15T01:13:44.043Z,96153.28
2022-12-15T01:16:35.152Z,96095.72
2022-12-15T01:19:20.627Z,96143.78
2022-12-15T01:21:47.221Z,95975.91
2022-12-15T01:24:13.824Z,96082.09
2022-12-15T01:26:40.476Z,96158.28
2022-12-15T01:29:07.103Z,96112.84
2022-12-15T01:31:33.638Z,96161.69
2022-12-15T01:34:00.384Z,96167.66
2022-12-15T01:36:26.904Z,96136.75
2022-12-15T01:38:54.481Z,96118.69
2022-12-15T01:41:21.315Z,96159.00
2022-12-15T01:43:49.833Z,96168.34
2022-12-15T01:46:18.224Z,96115.25
2022-12-15T01:49:05.499Z,96098.09
2022-12-15T01:51:40.126Z,96170.81
2022-12-15T01:54:07.186Z,96255.66
2022-12-15T01:56:37.926Z,96181.97
2022-12-15T01:59:05.032Z,96109.09
2022-12-15T02:01:31.789Z,96199.91
2022-12-15T02:03:58.415Z,96096.19
2022-12-15T02:06:24.979Z,96147.66
2022-12-15T02:08:52.264Z,96161.38
2022-12-15T02:11:53.045Z,96247.16
2022-12-15T02:14:44.747Z,96168.22
2022-12-15T02:17:29.591Z,96252.25
2022-12-15T02:20:20.361Z,96249.72
2022-12-15T02:23:08.146Z,96257.34
2022-12-15T02:26:06.374Z,96222.09
2022-12-15T02:29:00.348Z,96252.28
2022-12-15T02:31:50.600Z,96118.47
2022-12-15T02:34:26.467Z,96272.69
2022-12-15T02:36:57.294Z,96192.72
2022-12-15T02:39:23.967Z,96240.84
2022-12-15T02:41:51.736Z,96192.81
2022-12-15T02:44:22.637Z,96188.28
2022-12-15T02:46:52.054Z,96288.84
2022-12-15T02:49:35.474Z,96285.44
2022-12-15T02:52:22.872Z,96295.66
2022-12-15T02:54:58.425Z,96288.00
2022-12-15T02:58:03.946Z,96293.91
2022-12-15T03:00:30.697Z,96151.38
2022-12-15T03:02:57.387Z,96153.97
2022-12-15T03:05:24.579Z,96191.72
2022-12-15T03:07:52.223Z,96283.56
2022-12-15T03:10:19.060Z,96150.63
2022-12-15T03:12:45.886Z,96289.63
2022-12-15T03:15:12.489Z,96267.31
2022-12-15T03:17:39.183Z,96200.41
2022-12-15T03:20:06.228Z,96184.84
2022-12-15T03:22:32.797Z,96144.47
2022-12-15T03:24:59.453Z,96178.03
2022-12-15T03:27:26.007Z,96267.19
2022-12-15T03:29:52.584Z,96226.13
2022-12-15T03:32:19.161Z,96234.59
2022-12-15T03:34:45.888Z,96221.63
2022-12-15T03:37:12.596Z,96275.66
2022-12-15T03:39:39.233Z,96189.84
2022-12-15T03:42:05.819Z,96095.44
2022-12-15T03:44:32.406Z,96311.50
2022-12-15T03:47:03.280Z,96198.28
2022-12-15T03:49:30.435Z,96216.22
2022-12-15T03:51:56.997Z,96277.13
2022-12-15T03:54:23.585Z,96222.28
2022-12-15T03:56:50.165Z,96274.63
2022-12-15T03:59:16.703Z,96313.34
2022-12-15T04:01:46.239Z,96192.28
2022-12-15T04:04:12.949Z,96236.94
2022-12-15T04:06:39.491Z,96198.31
2022-12-15T04:09:06.125Z,96231.00
2022-12-15T04:11:32.695Z,96231.81
2022-12-15T04:13:59.238Z,96299.66
2022-12-15T04:16:25.907Z,96265.09
2022-12-15T04:19:12.584Z,96324.31
2022-12-15T04:21:39.140Z,96241.91
2022-12-15T04:24:24.840Z,96273.66
2022-12-15T04:27:10.076Z,96107.22
2022-12-15T04:29:55.342Z,96238.44
2022-12-15T04:32:40.567Z,96307.28
2022-12-15T04:35:25.768Z,96097.06
2022-12-15T04:38:11.389Z,96355.19
2022-12-15T04:40:56.709Z,96145.84
2022-12-15T04:43:41.886Z,96088.38
2022-12-15T04:46:27.195Z,96072.84
2022-12-15T04:49:12.427Z,96318.16
2022-12-15T04:51:57.719Z,96303.53
2022-12-15T04:54:42.909Z,96323.34
2022-12-15T04:57:28.593Z,96276.88
2022-12-15T05:00:13.804Z,96096.72
2022-12-15T05:02:58.971Z,96292.31
2022-12-15T05:05:44.300Z,96320.59
2022-12-15T05:08:29.381Z,96189.19
2022-12-15T05:11:14.760Z,96292.19
2022-12-15T05:14:00.046Z,96300.72
2022-12-15T05:16:45.219Z,96299.84
2022-12-15T05:19:30.519Z,96301.53
2022-12-15T05:22:15.527Z,96266.53
2022-12-15T05:25:00.834Z,96369.44
2022-12-15T05:27:45.850Z,96293.03
2022-12-15T05:30:31.169Z,96271.34
2022-12-15T05:32:57.683Z,96364.25
2022-12-15T05:35:24.365Z,96378.69
2022-12-15T05:37:50.956Z,96283.41
2022-12-15T05:40:17.485Z,96254.91
2022-12-15T05:42:44.081Z,96345.09
2022-12-15T05:45:16.632Z,96424.13
2022-12-15T05:47:43.208Z,96255.84
2022-12-15T05:50:10.049Z,96387.13
2022-12-15T05:52:36.603Z,96357.91
2022-12-15T05:55:03.268Z,96392.22
2022-12-15T05:57:29.856Z,96296.19
2022-12-15T05:59:56.519Z,96336.50
2022-12-15T06:02:23.188Z,96247.00
2022-12-15T06:04:49.962Z,96352.59
2022-12-15T06:07:16.766Z,96416.25
2022-12-15T06:09:43.405Z,96418.63
2022-12-15T06:12:09.936Z,96216.81
2022-12-15T06:14:36.547Z,96168.84
2022-12-15T06:17:03.108Z,96373.16
2022-12-15T06:19:29.649Z,96205.75
2022-12-15T06:21:56.224Z,96372.25
2022-12-15T06:24:22.838Z,96398.78
2022-12-15T06:26:49.625Z,96395.41
2022-12-15T06:29:16.606Z,96418.56
2022-12-15T06:31:43.394Z,96320.56
2022-12-15T06:34:14.240Z,96337.84
2022-12-15T06:36:41.170Z,96267.47
2022-12-15T06:39:09.904Z,96228.81
2022-12-15T06:41:36.500Z,96453.66
2022-12-15T06:44:03.180Z,96232.00
2022-12-15T06:46:30.878Z,96292.19
2022-12-15T06:48:57.848Z,96291.38
2022-12-15T06:51:24.474Z,96426.16
2022-12-15T06:53:54.248Z,96359.16
2022-12-15T06:56:33.603Z,96330.59
2022-12-15T06:59:01.572Z,96406.34
2022-12-15T07:01:28.275Z,96348.88
2022-12-15T07:03:55.304Z,96230.41
2022-12-15T07:06:22.205Z,96395.06
2022-12-15T07:08:53.486Z,96427.91
2022-12-15T07:11:21.063Z,96268.13
2022-12-15T07:13:51.820Z,96370.03
2022-12-15T07:16:18.656Z,96436.53
2022-12-15T07:18:45.343Z,96379.00
2022-12-15T07:21:11.966Z,96202.00
2022-12-15T07:23:54.260Z,96437.28
2022-12-15T07:26:21.669Z,96406.19
2022-12-15T07:28:48.282Z,96456.94
2022-12-15T07:31:15.525Z,96444.81
2022-12-15T07:33:42.418Z,96340.03
2022-12-15T07:36:09.120Z,96330.56
2022-12-15T07:38:35.785Z,96279.94
2022-12-15T07:41:03.454Z,96378.66
2022-12-15T07:43:31.464Z,96369.31
2022-12-15T07:45:58.481Z,96475.09
2022-12-15T07:48:25.166Z,96475.78
2022-12-15T07:51:02.919Z,96374.00
2022-12-15T07:53:33.890Z,96412.09
2022-12-15T07:56:09.612Z,96258.28
2022-12-15T07:58:36.827Z,96443.66
2022-12-15T08:01:07.280Z,96262.34
2022-12-15T08:03:34.739Z,96377.41
2022-12-15T08:06:05.788Z,96401.56
2022-12-15T08:08:33.550Z,96497.88
2022-12-15T08:11:05.261Z,96486.66
2022-12-15T08:14:01.442Z,96520.09
2022-12-15T08:16:19.852Z,96295.56
2022-12-15T08:18:46.863Z,96482.97
2022-12-15T08:21:14.581Z,96494.09
2022-12-15T08:23:41.270Z,96378.00
2022-12-15T08:26:09.530Z,96434.75
2022-12-15T08:28:36.246Z,96353.91
2022-12-15T08:31:05.497Z,96466.47
2022-12-15T08:33:32.480Z,96415.69
2022-12-15T08:36:01.161Z,96513.03
2022-12-15T08:38:27.740Z,96482.75
2022-12-15T08:40:54.280Z,96442.25
2022-12-15T08:43:20.954Z,96538.50
2022-12-15T08:45:47.750Z,96555.72
2022-12-15T08:48:16.867Z,96547.03
2022-12-15T08:50:45.565Z,96451.72
2022-12-15T08:53:30.951Z,96478.13
2022-12-15T08:56:06.401Z,96541.69
2022-12-15T08:58:33.467Z,96338.63
2022-12-15T09:01:04.735Z,96575.13
2022-12-15T09:03:31.715Z,96489.16
2022-12-15T09:06:05.775Z,96531.22
2022-12-15T09:08:32.856Z,96524.31
2022-12-15T09:10:59.819Z,96305.84
2022-12-15T09:13:26.364Z,96540.53
2022-12-15T09:16:11.331Z,96493.88
2022-12-15T09:18:38.235Z,96494.13
2022-12-15T09:21:05.972Z,96587.84
2022-12-15T09:23:33.348Z,96342.78
2022-12-15T09:26:14.383Z,96516.44
2022-12-15T09:28:41.280Z,96555.22
2022-12-15T09:31:12.639Z,96343.09
2022-12-15T09:33:40.016Z,96507.25
2022-12-15T09:36:06.916Z,96473.59
2022-12-15T09:38:34.525Z,96413.69
2022-12-15T09:41:13.284Z,96552.84
2022-12-15T09:43:52.434Z,96547.75
2022-12-15T09:46:37.620Z,96539.22
2022-12-15T09:49:10.719Z,96414.59
2022-12-15T09:51:41.014Z,96463.59
2022-12-15T09:54:09.755Z,96492.81
2022-12-15T09:56:41.375Z,96534.97
2022-12-15T09:59:17.317Z,96430.88
2022-12-15T10:01:53.531Z,96528.09
2022-12-15T10:04:20.165Z,96513.63
2022-12-15T10:07:26.105Z,96120.16
2022-12-15T10:09:53.154Z,96140.56
2022-12-15T10:12:25.665Z,96209.56
2022-12-15T10:15:28.265Z,96496.56
2022-12-15T10:18:22.568Z,96516.94
2022-12-15T10:20:49.225Z,96509.25
2022-12-15T10:23:17.434Z,96408.66
2022-12-15T10:25:55.543Z,96423.19
2022-12-15T10:28:25.486Z,96436.03
2022-12-15T10:30:59.468Z,96511.81
2022-12-15T10:33:34.636Z,96437.69
2022-12-15T10:36:01.408Z,96488.44
2022-12-15T10:38:34.612Z,96482.56
2022-12-15T10:41:02.459Z,96391.38
2022-12-15T10:43:56.148Z,96519.50
2022-12-15T10:46:27.427Z,96450.00
2022-12-15T10:49:21.372Z,96458.50
2022-12-15T10:51:53.290Z,96511.09
2022-12-15T10:54:20.888Z,96424.47
2022-12-15T10:56:54.926Z,96384.22
2022-12-15T10:59:33.833Z,96459.00
2022-12-15T11:02:25.219Z,96494.25
2022-12-15T11:05:16.807Z,96496.88
2022-12-15T11:07:46.352Z,96484.97
2022-12-15T11:10:28.037Z,96368.03
2022-12-15T11:13:13.623Z,96493.53
2022-12-15T11:15:50.903Z,96441.81
2022-12-15T11:18:53.913Z,96457.31
2022-12-15T11:21:22.344Z,96491.91
2022-12-15T11:23:57.097Z,96481.72
2022-12-15T11:26:53.275Z,96479.19
2022-12-15T11:29:40.431Z,96485.16
2022-12-15T11:32:07.718Z,96474.00
2022-12-15T11:34:45.383Z,96194.41
2022-12-15T11:37:34.457Z,96433.34
2022-12-15T11:40:40.811Z,96431.63
2022-12-15T11:43:41.817Z,96441.88
2022-12-15T11:46:27.230Z,96452.94
2022-12-15T11:49:18.536Z,96454.66
2022-12-15T11:51:57.948Z,96464.88
2022-12-15T11:54:36.779Z,96265.31
2022-12-15T11:57:08.421Z,96172.03
2022-12-15T11:59:43.956Z,96468.34
2022-12-15T12:02:14.693Z,96462.41
2022-12-15T12:04:53.202Z,96453.91
2022-12-15T12:07:43.391Z,96442.84
2022-12-15T12:10:25.092Z,96438.63
2022-12-15T12:13:24.042Z,96433.50
2022-12-15T12:16:05.919Z,96439.41
2022-12-15T12:18:38.595Z,96404.06
2022-12-15T12:21:08.088Z,96454.75
2022-12-15T12:23:51.785Z,96450.50
2022-12-15T12:26:22.737Z,96453.91
2022-12-15T12:28:52.205Z,96456.47
2022-12-15T12:31:38.408Z,96456.47
2022-12-15T12:34:13.426Z,96356.81
2022-12-15T12:36:41.191Z,96294.22
2022-12-15T12:39:10.543Z,96329.47
2022-12-15T12:41:41.307Z,96344.94
2022-12-15T12:44:13.063Z,96392.19
2022-12-15T12:46:44.587Z,96290.97
2022-12-15T12:49:26.690Z,96360.59
2022-12-15T12:51:58.707Z,96400.09
2022-12-15T12:54:34.460Z,96390.16
2022-12-15T12:57:01.712Z,96299.94
2022-12-15T12:59:31.518Z,96373.97
2022-12-15T13:02:17.174Z,96374.84
2022-12-15T13:04:49.498Z,96287.31
2022-12-15T13:08:05.018Z,96312.25
2022-12-15T13:10:41.440Z,96232.38
2022-12-15T13:13:31.307Z,96366.25
2022-12-15T13:16:22.801Z,96362.03
2022-12-15T13:19:06.742Z,96356.91
2022-12-15T13:21:42.727Z,96356.91
2022-12-15T13:24:31.899Z,96359.47
2022-12-15T13:27:04.809Z,96356.03
2022-12-15T13:29:31.480Z,96254.75
2022-12-15T13:31:58.154Z,96183.53
2022-12-15T13:34:25.063Z,96339.59
2022-12-15T13:36:55.340Z,96236.53
2022-12-15T13:39:22.134Z,96355.00
2022-12-15T13:42:23.480Z,96362.66
2022-12-15T13:44:41.822Z,96257.84
2022-12-15T13:47:13.289Z,96348.84
2022-12-15T13:50:13.334Z,96198.63
2022-12-15T13:53:17.177Z,96283.63
2022-12-15T13:55:37.434Z,96167.59
2022-12-15T13:58:14.520Z,96330.00
2022-12-15T14:00:54.129Z,96170.47
2022-12-15T14:03:20.768Z,96285.34
2022-12-15T14:05:57.327Z,96261.19
2022-12-15T14:08:26.090Z,96231.13
2022-12-15T14:10:54.355Z,96333.47
2022-12-15T14:13:23.248Z,96173.97
2022-12-15T14:16:15.363Z,96348.19
2022-12-15T14:18:42.196Z,96290.72
2022-12-15T14:21:26.892Z,96234.06
2022-12-15T14:26:41.349Z,96294.34
2022-12-15T14:29:09.238Z,96135.50
2022-12-15T14:31:35.954Z,96092.81
2022-12-15T14:34:03.302Z,96318.53
2022-12-15T14:36:30.721Z,96198.47
2022-12-15T14:39:04.870Z,96186.63
2022-12-15T14:41:33.667Z,96155.47
2022-12-15T14:44:36.086Z,96270.50
2022-12-15T14:46:55.075Z,96136.13
2022-12-15T14:49:23.862Z,96179.75
2022-12-15T14:51:52.556Z,96164.13
2022-12-15T14:54:38.345Z,96156.41
2022-12-15T14:57:16.015Z,96225.97
2022-12-15T14:59:44.179Z,96234.41
2022-12-15T15:02:13.801Z,96122.28
2022-12-15T15:04:41.146Z,96043.44
2022-12-15T15:07:17.891Z,96165.88
2022-12-15T15:09:45.062Z,96308.38
2022-12-15T15:12:22.436Z,96083.44
2022-12-15T15:14:54.352Z,96219.13
2022-12-15T15:17:42.716Z,96238.88
2022-12-15T15:20:19.471Z,96301.59
2022-12-15T15:22:46.693Z,96250.84
2022-12-15T15:25:25.757Z,96311.81
2022-12-15T15:27:52.384Z,96091.19
2022-12-15T15:30:23.060Z,96103.25
2022-12-15T15:32:57.102Z,96285.09
2022-12-15T15:35:25.112Z,96196.75
2022-12-15T15:37:52.278Z,96267.97
2022-12-15T15:40:18.968Z,96213.91
2022-12-15T15:42:45.967Z,96303.19
2022-12-15T15:45:15.747Z,96265.38
2022-12-15T15:47:46.754Z,96157.34
2022-12-15T15:50:14.731Z,96078.44
2022-12-15T15:52:41.960Z,96177.09
2022-12-15T15:55:13.323Z,96129.81
2022-12-15T15:57:39.898Z,96165.09
2022-12-15T16:00:17.872Z,96192.56
2022-12-15T16:02:44.646Z,96153.09
2022-12-15T16:05:11.269Z,96253.41
2022-12-15T16:07:37.897Z,96207.28
2022-12-15T16:10:06.491Z,96194.47
2022-12-15T16:12:37.536Z,96150.63
2022-12-15T16:15:12.693Z,96231.31
2022-12-15T16:17:39.288Z,96167.94
2022-12-15T16:20:06.467Z,96071.94
2022-12-15T16:22:33.702Z,96065.06
2022-12-15T16:25:00.295Z,96133.78
2022-12-15T16:27:26.865Z,96163.81
2022-12-15T16:29:53.355Z,96222.16
2022-12-15T16:32:19.928Z,96148.47
2022-12-15T16:34:46.968Z,96224.50
2022-12-15T16:37:26.613Z,96130.25
2022-12-15T16:39:53.121Z,96031.88
2022-12-15T16:42:22.276Z,96211.06
2022-12-15T16:44:48.781Z,96097.47
2022-12-15T16:47:16.084Z,96249.53
2022-12-15T16:49:42.669Z,96180.13
2022-12-15T16:52:18.415Z,96131.97
2022-12-15T16:54:46.435Z,96122.63
2022-12-15T16:57:13.068Z,96212.72
2022-12-15T16:59:39.619Z,96241.03
2022-12-15T17:02:24.584Z,96189.59
2022-12-15T17:04:52.562Z,96166.47
2022-12-15T17:07:20.608Z,95976.22
2022-12-15T17:09:48.515Z,95942.06
2022-12-15T17:12:15.692Z,96181.00
2022-12-15T17:14:42.284Z,96094.47
2022-12-15T17:17:13.791Z,96187.00
2022-12-15T17:19:48.226Z,96169.84
2022-12-15T17:22:26.960Z,96222.94
2022-12-15T17:24:53.710Z,96197.22
2022-12-15T17:27:25.898Z,96043.84
2022-12-15T17:29:52.463Z,96218.50
2022-12-15T17:32:19.191Z,96186.16
2022-12-15T17:34:45.716Z,96199.03
2022-12-15T17:37:12.449Z,96010.59
2022-12-15T17:39:38.981Z,96013.91
2022-12-15T17:42:16.492Z,96042.31
2022-12-15T17:44:46.636Z,96236.09
2022-12-15T17:47:13.882Z,96106.63
2022-12-15T17:49:40.426Z,96118.78
2022-12-15T17:52:27.908Z,96043.50
2022-12-15T17:54:54.461Z,96177.22
2022-12-15T17:57:21.000Z,95984.28
2022-12-15T17:59:47.568Z,96083.78
2022-12-15T18:02:14.481Z,96158.28
2022-12-15T18:04:41.608Z,95989.75
2022-12-15T18:07:18.728Z,95991.34
2022-12-15T18:09:45.274Z,96069.41
2022-12-15T18:12:19.610Z,96206.47
2022-12-15T18:14:46.184Z,96106.28
2022-12-15T18:17:12.756Z,96155.09
2022-12-15T18:19:39.343Z,96114.69
2022-12-15T18:22:17.995Z,95958.88
2022-12-15T18:24:44.498Z,95982.84
2022-12-15T18:27:20.726Z,96112.22
2022-12-15T18:29:47.234Z,95929.00
2022-12-15T18:32:13.746Z,96083.09
2022-12-15T18:34:40.324Z,96163.66
2022-12-15T18:37:14.840Z,95953.88
2022-12-15T18:39:41.374Z,95994.84
2022-12-15T18:42:16.527Z,95846.84
2022-12-15T18:44:48.405Z,95957.94
2022-12-15T18:47:19.590Z,95952.06
2022-12-15T18:49:46.367Z,96161.16
2022-12-15T18:52:17.395Z,96080.66
2022-12-15T18:54:44.682Z,96077.22
2022-12-15T18:57:32.399Z,96012.25
2022-12-15T19:00:07.945Z,95906.13
2022-12-15T19:02:34.658Z,95925.84
2022-12-15T19:05:01.320Z,96007.13
2022-12-15T19:07:27.876Z,96172.44
2022-12-15T19:09:54.398Z,95943.53
2022-12-15T19:12:21.036Z,95956.69
2022-12-15T19:14:49.292Z,96070.59
2022-12-15T19:17:35.640Z,95911.34
2022-12-15T19:20:24.244Z,96068.09
2022-12-15T19:22:51.019Z,95886.59
2022-12-15T19:25:25.843Z,95924.97
2022-12-15T19:27:59.284Z,95957.44
2022-12-15T19:30:41.687Z,96135.03
2022-12-15T19:33:09.535Z,95929.47
2022-12-15T19:35:36.842Z,95838.75
2022-12-15T19:38:03.378Z,95940.78
2022-12-15T19:40:31.084Z,96115.47
2022-12-15T19:42:58.399Z,95891.06
2022-12-15T19:45:26.642Z,96039.19
2022-12-15T19:47:53.281Z,95957.00
2022-12-15T19:50:24.973Z,95964.69
2022-12-15T19:52:53.157Z,95801.34
2022-12-15T19:55:23.847Z,95872.34
2022-12-15T19:57:50.385Z,95866.31
2022-12-15T20:00:18.004Z,95961.34
2022-12-15T20:02:44.662Z,95867.22
2022-12-15T20:05:11.573Z,95945.81
2022-12-15T20:07:38.135Z,95860.38
2022-12-15T20:10:06.612Z,95910.00
2022-12-15T20:12:33.134Z,96023.84
2022-12-15T20:14:59.745Z,95980.16
2022-12-15T20:17:26.308Z,95944.16
2022-12-15T20:19:52.867Z,96022.22
2022-12-15T20:22:22.273Z,95904.06
2022-12-15T20:24:48.926Z,96100.16
2022-12-15T20:27:16.581Z,96009.44
2022-12-15T20:29:43.227Z,95857.09
2022-12-15T20:32:17.316Z,96010.31
2022-12-15T20:34:43.969Z,95856.31
2022-12-15T20:37:21.993Z,95887.84
2022-12-15T20:39:52.582Z,95816.25
2022-12-15T20:42:22.402Z,96036.09
2022-12-15T20:44:49.108Z,95786.28
2022-12-15T20:47:25.926Z,95860.66
2022-12-15T20:49:54.285Z,95993.31
2022-12-15T20:52:22.808Z,95992.47
2022-12-15T20:54:50.094Z,95886.44
2022-12-15T20:57:16.751Z,95978.81
2022-12-15T20:59:43.323Z,95776.19
2022-12-15T21:02:20.867Z,95824.81
2022-12-15T21:04:47.743Z,96017.41
2022-12-15T21:07:14.329Z,95807.84
2022-12-15T21:09:40.983Z,95840.34
2022-12-15T21:12:18.211Z,96060.19
2022-12-15T21:14:45.110Z,95966.13
2022-12-15T21:17:19.383Z,95927.56
2022-12-15T21:19:45.947Z,95960.16
2022-12-15T21:22:16.141Z,96030.44
2022-12-15T21:24:42.699Z,95865.38
2022-12-15T21:27:12.258Z,95777.34
2022-12-15T21:29:38.766Z,95705.59
2022-12-15T21:32:05.343Z,95894.56
2022-12-15T21:34:31.875Z,95972.34
2022-12-15T21:36:58.436Z,95913.31
2022-12-15T21:39:32.943Z,96008.34
2022-12-15T21:42:01.548Z,95691.97
2022-12-15T21:44:28.097Z,95909.16
2022-12-15T21:46:54.854Z,95755.28
2022-12-15T21:49:21.513Z,95920.25
2022-12-15T21:51:51.885Z,95837.28
2022-12-15T21:54:20.206Z,95924.47
2022-12-15T21:56:48.021Z,95934.69
2022-12-15T21:59:16.095Z,95797.81
2022-12-15T22:01:42.773Z,95865.47
2022-12-15T22:04:25.553Z,95873.94
2022-12-15T22:06:52.119Z,95923.63
2022-12-15T22:09:19.018Z,95773.97
2022-12-15T22:11:46.866Z,95803.75
2022-12-15T22:14:19.614Z,96010.03
2022-12-15T22:16:46.150Z,95933.03
2022-12-15T22:19:13.567Z,95784.22
2022-12-15T22:21:41.686Z,95857.72
2022-12-15T22:24:11.516Z,95932.13
2022-12-15T22:26:38.715Z,95917.63
2022-12-15T22:29:25.513Z,95865.44
2022-12-15T22:31:52.120Z,96015.97
2022-12-15T22:34:20.624Z,96004.00
2022-12-15T22:36:47.556Z,95883.28
2022-12-15T22:39:15.055Z,95943.19
2022-12-15T22:41:43.716Z,95777.31
2022-12-15T22:44:23.634Z,95814.00
2022-12-15T22:46:50.687Z,95784.97
2022-12-15T22:49:25.040Z,96032.13
2022-12-15T22:51:51.621Z,95941.44
2022-12-15T22:54:23.216Z,95783.28
2022-12-15T22:56:52.428Z,95786.63
2022-12-15T22:59:22.724Z,95802.91
2022-12-15T23:01:49.302Z,95937.16
2022-12-15T23:04:15.924Z,95618.34
2022-12-15T23:06:42.524Z,96032.16
2022-12-15T23:09:09.099Z,95784.09
2022-12-15T23:11:38.521Z,95834.59
2022-12-15T23:14:06.200Z,95986.88
2022-12-15T23:16:33.911Z,95787.56
2022-12-15T23:19:01.519Z,95933.81
2022-12-15T23:21:28.213Z,95893.63
2022-12-15T23:23:54.908Z,95791.00
2022-12-15T23:26:23.171Z,95690.22
2022-12-15T23:28:49.868Z,95850.91
2022-12-15T23:31:17.436Z,95773.13
2022-12-15T23:33:44.035Z,95931.25
2022-12-15T23:36:10.779Z,95779.88
2022-12-15T23:38:37.364Z,95927.88
2022-12-15T23:41:03.951Z,95979.22
2022-12-15T23:43:32.177Z,95932.13
2022-12-15T23:46:00.685Z,95750.81
2022-12-15T23:48:31.906Z,95774.00
2022-12-15T23:51:05.043Z,96010.84
2022-12-15T23:53:32.307Z,95856.91
2022-12-15T23:56:18.208Z,96014.28
2022-12-15T23:58:45.351Z,95805.41
